createdAt,value
2017-07-25T00:01:46.130Z,4.57
2017-07-25T00:04:13.025Z,4.57
2017-07-25T00:06:39.300Z,4.40
2017-07-25T00:09:06.035Z,3.63
2017-07-25T00:11:32.579Z,4.15
2017-07-25T00:13:58.858Z,4.80
2017-07-25T00:16:25.116Z,4.73
2017-07-25T00:18:51.364Z,3.53
2017-07-25T00:21:17.625Z,4.00
2017-07-25T00:23:44.442Z,3.33
2017-07-25T00:26:11.711Z,4.37
2017-07-25T00:28:38.715Z,5.37
2017-07-25T00:31:05.315Z,4.33
2017-07-25T00:33:32.224Z,6.90
2017-07-25T00:35:59.455Z,3.90
2017-07-25T00:38:25.981Z,5.00
2017-07-25T00:40:53.119Z,5.87
2017-07-25T00:43:19.453Z,7.70
2017-07-25T00:45:45.719Z,7.25
2017-07-25T00:48:11.997Z,4.55
2017-07-25T00:50:38.277Z,7.50
2017-07-25T00:53:04.547Z,4.30
2017-07-25T00:55:30.804Z,5.22
2017-07-25T00:57:58.784Z,10.82
2017-07-25T01:00:26.570Z,4.22
2017-07-25T01:02:53.065Z,4.95
2017-07-25T01:05:19.343Z,7.10
2017-07-25T01:07:46.383Z,6.90
2017-07-25T01:10:20.792Z,4.90
2017-07-25T01:12:47.734Z,4.65
2017-07-25T01:15:14.021Z,8.07
2017-07-25T01:17:41.269Z,4.20
2017-07-25T01:20:07.553Z,4.05
2017-07-25T01:22:33.863Z,7.37
2017-07-25T01:25:00.744Z,5.65
2017-07-25T01:27:28.287Z,5.82
2017-07-25T01:29:55.984Z,3.53
2017-07-25T01:32:22.257Z,6.68
2017-07-25T01:34:49.076Z,4.12
2017-07-25T01:37:16.626Z,6.45
2017-07-25T01:39:43.173Z,4.70
2017-07-25T01:42:09.714Z,4.25
2017-07-25T01:44:36.248Z,3.58
2017-07-25T01:47:02.563Z,5.45
2017-07-25T01:49:28.899Z,4.22
2017-07-25T01:51:55.205Z,4.43
2017-07-25T01:54:21.982Z,4.25
2017-07-25T01:56:48.951Z,5.30
2017-07-25T01:59:15.842Z,5.90
2017-07-25T02:01:42.148Z,5.97
2017-07-25T02:04:08.431Z,4.57
2017-07-25T02:06:34.719Z,8.05
2017-07-25T02:09:00.942Z,5.20
2017-07-25T02:11:27.171Z,6.05
2017-07-25T02:13:53.443Z,4.22
2017-07-25T02:16:19.729Z,8.48
2017-07-25T02:18:46.954Z,4.93
2017-07-25T02:21:14.030Z,5.45
2017-07-25T02:23:41.119Z,5.70
2017-07-25T02:26:08.738Z,6.47
2017-07-25T02:28:35.544Z,6.82
2017-07-25T02:31:01.814Z,6.60
2017-07-25T02:33:28.706Z,4.00
2017-07-25T02:35:55.475Z,5.65
2017-07-25T02:38:22.467Z,4.22
2017-07-25T02:40:49.429Z,6.50
2017-07-25T02:43:15.756Z,7.20
2017-07-25T02:45:42.548Z,7.10
2017-07-25T02:48:09.784Z,4.55
2017-07-25T02:50:37.251Z,5.07
2017-07-25T02:53:04.268Z,4.10
2017-07-25T02:55:30.552Z,4.40
2017-07-25T02:57:56.910Z,6.68
2017-07-25T03:00:24.426Z,5.22
2017-07-25T03:02:50.712Z,3.80
2017-07-25T03:05:17.506Z,8.32
2017-07-25T03:07:44.774Z,7.90
2017-07-25T03:10:11.040Z,4.00
2017-07-25T03:12:38.308Z,5.28
2017-07-25T03:15:06.243Z,5.25
2017-07-25T03:17:32.515Z,4.93
2017-07-25T03:19:59.526Z,5.07
2017-07-25T03:22:26.327Z,8.13
2017-07-25T03:24:52.598Z,4.87
2017-07-25T03:27:18.844Z,7.35
2017-07-25T03:29:45.138Z,4.78
2017-07-25T03:32:12.421Z,4.20
2017-07-25T03:34:40.218Z,6.50
2017-07-25T03:37:07.746Z,4.50
2017-07-25T03:39:35.415Z,5.20
2017-07-25T03:42:03.194Z,7.97
2017-07-25T03:44:30.912Z,6.70
2017-07-25T03:46:57.788Z,5.35
2017-07-25T03:49:24.805Z,6.82
2017-07-25T03:51:52.786Z,4.87
2017-07-25T03:54:20.076Z,6.55
2017-07-25T03:56:46.857Z,6.90
2017-07-25T03:59:13.636Z,5.50
2017-07-25T04:01:41.328Z,5.47
2017-07-25T04:04:07.830Z,5.12
2017-07-25T04:06:35.088Z,8.68
2017-07-25T04:09:01.370Z,9.15
2017-07-25T04:11:27.998Z,5.00
2017-07-25T04:13:55.085Z,4.68
2017-07-25T04:16:22.332Z,6.80
2017-07-25T04:18:48.622Z,6.30
2017-07-25T04:21:14.862Z,5.60
2017-07-25T04:23:41.659Z,8.10
2017-07-25T04:26:09.382Z,6.60
2017-07-25T04:28:35.654Z,7.70
2017-07-25T04:31:02.836Z,10.30
2017-07-25T04:33:29.127Z,6.78
2017-07-25T04:35:56.793Z,4.82
2017-07-25T04:38:23.815Z,5.90
2017-07-25T04:40:50.094Z,5.20
2017-07-25T04:43:16.651Z,6.05
2017-07-25T04:45:43.187Z,5.40
2017-07-25T04:48:09.958Z,5.70
2017-07-25T04:50:36.330Z,4.57
2017-07-25T04:53:02.563Z,5.28
2017-07-25T04:55:29.558Z,7.47
2017-07-25T04:57:56.388Z,5.60
2017-07-25T05:00:22.668Z,8.25
2017-07-25T05:02:48.928Z,5.60
2017-07-25T05:05:15.204Z,7.10
2017-07-25T05:07:42.796Z,4.78
2017-07-25T05:10:09.046Z,8.73
2017-07-25T05:12:35.327Z,7.75
2017-07-25T05:15:02.326Z,6.43
2017-07-25T05:17:29.408Z,4.68
2017-07-25T05:19:55.675Z,4.95
2017-07-25T05:22:21.920Z,6.65
2017-07-25T05:24:49.217Z,8.80
2017-07-25T05:27:15.471Z,7.22
2017-07-25T05:29:41.713Z,7.47
2017-07-25T05:32:08.322Z,6.30
2017-07-25T05:34:34.597Z,6.82
2017-07-25T05:37:00.889Z,6.05
2017-07-25T05:39:27.394Z,6.90
2017-07-25T05:41:53.661Z,7.22
2017-07-25T05:44:20.554Z,7.90
2017-07-25T05:46:47.330Z,7.65
2017-07-25T05:49:14.380Z,11.48
2017-07-25T05:51:41.369Z,7.30
2017-07-25T05:54:08.214Z,7.62
2017-07-25T05:56:34.946Z,6.85
2017-07-25T05:59:01.909Z,9.88
2017-07-25T06:01:29.047Z,7.12
2017-07-25T06:03:55.508Z,7.00
2017-07-25T06:06:21.836Z,6.80
2017-07-25T06:08:48.725Z,7.30
2017-07-25T06:11:15.021Z,7.37
2017-07-25T06:13:42.738Z,6.65
2017-07-25T06:16:09.477Z,6.32
2017-07-25T06:18:36.028Z,6.30
2017-07-25T06:21:02.512Z,7.33
2017-07-25T06:23:29.332Z,7.20
2017-07-25T06:25:56.023Z,7.32
2017-07-25T06:28:22.787Z,5.53
2017-07-25T06:30:49.088Z,6.85
2017-07-25T06:33:15.327Z,6.13
2017-07-25T06:35:42.218Z,6.00
2017-07-25T06:38:09.093Z,6.27
2017-07-25T06:40:36.079Z,6.60
2017-07-25T06:43:03.204Z,6.07
2017-07-25T06:45:31.150Z,6.70
2017-07-25T06:47:58.415Z,8.67
2017-07-25T06:50:24.844Z,5.10
2017-07-25T06:52:51.118Z,6.50
2017-07-25T06:55:18.007Z,6.47
2017-07-25T06:57:46.338Z,5.93
2017-07-25T07:00:13.428Z,6.50
2017-07-25T07:02:40.359Z,6.87
2017-07-25T07:05:07.788Z,7.23
2017-07-25T07:07:34.636Z,6.77
2017-07-25T07:10:01.264Z,7.30
2017-07-25T07:12:28.254Z,7.73
2017-07-25T07:14:55.547Z,7.47
2017-07-25T07:17:22.451Z,8.10
2017-07-25T07:19:48.714Z,8.33
2017-07-25T07:22:15.973Z,7.37
2017-07-25T07:24:42.274Z,7.87
2017-07-25T07:27:08.577Z,7.70
2017-07-25T07:29:35.571Z,8.27
2017-07-25T07:32:02.406Z,8.07
2017-07-25T07:34:30.136Z,8.53
2017-07-25T07:36:57.147Z,8.73
2017-07-25T07:39:23.920Z,8.20
2017-07-25T07:41:50.926Z,8.40
2017-07-25T07:44:17.716Z,6.73
2017-07-25T07:46:43.963Z,7.00
2017-07-25T07:49:10.876Z,7.87
2017-07-25T07:51:37.496Z,7.80
2017-07-25T07:54:03.878Z,8.03
2017-07-25T07:56:30.166Z,8.07
2017-07-25T07:58:58.716Z,7.63
2017-07-25T08:01:25.659Z,8.67
2017-07-25T08:03:51.913Z,6.87
2017-07-25T08:06:19.185Z,7.67
2017-07-25T08:08:45.976Z,8.50
2017-07-25T08:11:12.245Z,8.63
2017-07-25T08:13:40.913Z,9.90
2017-07-25T08:16:07.697Z,8.13
2017-07-25T08:18:33.952Z,7.93
2017-07-25T08:21:00.744Z,7.93
2017-07-25T08:23:27.984Z,6.67
2017-07-25T08:25:54.668Z,8.50
2017-07-25T08:28:21.016Z,8.50
2017-07-25T08:30:47.737Z,9.20
2017-07-25T08:33:14.003Z,7.60
2017-07-25T08:35:40.242Z,9.10
2017-07-25T08:38:06.527Z,9.10
2017-07-25T08:40:34.000Z,10.50
2017-07-25T08:43:00.260Z,7.90
2017-07-25T08:45:27.510Z,8.60
2017-07-25T08:47:53.970Z,9.73
2017-07-25T09:03:21.404Z,6.77
2017-07-25T09:05:48.725Z,7.10
2017-07-25T09:08:14.968Z,7.20
2017-07-25T09:10:42.769Z,6.93
2017-07-25T09:13:09.106Z,6.97
2017-07-25T09:15:35.372Z,5.83
2017-07-25T09:18:01.665Z,7.43
2017-07-25T09:20:28.551Z,6.87
2017-07-25T09:23:10.318Z,6.33
2017-07-25T09:25:36.582Z,6.93
2017-07-25T09:28:03.607Z,6.80
2017-07-25T09:30:29.898Z,7.70
2017-07-25T09:32:56.687Z,6.90
2017-07-25T09:35:22.947Z,7.40
2017-07-25T09:37:49.624Z,8.47
2017-07-25T09:40:16.538Z,6.70
2017-07-25T09:42:42.825Z,6.40
2017-07-25T09:45:09.623Z,7.40
2017-07-25T09:47:35.857Z,8.53
2017-07-25T09:50:02.153Z,7.20
2017-07-25T09:52:29.155Z,7.00
2017-07-25T09:54:55.405Z,7.80
2017-07-25T09:57:21.666Z,8.43
2017-07-25T09:59:47.914Z,9.00
2017-07-25T10:02:14.184Z,5.70
2017-07-25T10:04:40.426Z,6.80
2017-07-25T10:07:07.260Z,7.93
2017-07-25T10:09:33.534Z,7.53
2017-07-25T10:12:00.578Z,8.30
2017-07-25T10:14:26.986Z,6.70
2017-07-25T10:16:53.245Z,7.60
2017-07-25T10:19:19.946Z,7.53
2017-07-25T10:21:46.222Z,8.10
2017-07-25T10:24:12.498Z,7.40
2017-07-25T10:26:39.846Z,12.47
2017-07-25T10:29:06.114Z,6.20
2017-07-25T10:31:33.149Z,6.43
2017-07-25T10:33:59.430Z,6.67
2017-07-25T10:36:25.726Z,6.27
2017-07-25T10:38:52.005Z,6.40
2017-07-25T10:41:18.260Z,6.30
2017-07-25T10:43:45.302Z,8.83
2017-07-25T10:46:12.293Z,7.00
2017-07-25T10:48:38.558Z,6.07
2017-07-25T10:51:04.829Z,6.93
2017-07-25T10:53:31.104Z,6.90
2017-07-25T10:55:57.348Z,6.20
2017-07-25T10:58:23.594Z,7.17
2017-07-25T11:00:51.265Z,7.20
2017-07-25T11:03:17.546Z,8.07
2017-07-25T11:05:44.572Z,6.67
2017-07-25T11:08:12.049Z,6.60
2017-07-25T11:10:38.296Z,5.93
2017-07-25T11:13:04.571Z,6.97
2017-07-25T11:15:30.844Z,6.50
2017-07-25T11:17:57.636Z,6.60
2017-07-25T11:20:23.925Z,6.80
2017-07-25T11:22:50.922Z,5.80
2017-07-25T11:25:18.002Z,6.00
2017-07-25T11:27:44.257Z,6.30
2017-07-25T11:30:11.347Z,6.30
2017-07-25T11:32:37.612Z,6.63
2017-07-25T11:35:03.880Z,5.37
2017-07-25T11:37:31.431Z,3.97
2017-07-25T11:39:59.327Z,4.70
2017-07-25T11:42:26.286Z,4.40
2017-07-25T11:44:53.528Z,4.43
2017-07-25T11:47:20.699Z,4.13
2017-07-25T11:49:46.999Z,6.23
2017-07-25T11:52:13.247Z,6.40
2017-07-25T11:54:40.009Z,6.30
2017-07-25T11:57:06.341Z,5.37
2017-07-25T11:59:33.233Z,5.53
2017-07-25T12:02:00.706Z,6.00
2017-07-25T12:04:29.280Z,5.80
2017-07-25T12:06:55.534Z,10.77
2017-07-25T12:09:22.482Z,5.37
2017-07-25T12:11:49.317Z,5.77
2017-07-25T12:14:15.567Z,5.63
2017-07-25T12:16:42.830Z,5.33
2017-07-25T12:19:09.663Z,5.13
2017-07-25T12:21:42.327Z,5.43
2017-07-25T12:24:10.212Z,5.93
2017-07-25T12:26:37.022Z,6.37
2017-07-25T12:29:03.275Z,5.20
2017-07-25T12:31:30.860Z,4.70
2017-07-25T12:33:58.276Z,5.70
2017-07-25T12:36:25.519Z,6.10
2017-07-25T12:38:52.494Z,6.03
2017-07-25T12:41:19.171Z,14.20
2017-07-25T12:43:46.820Z,7.87
2017-07-25T12:46:14.252Z,7.60
2017-07-25T12:48:41.295Z,7.97
2017-07-25T12:51:07.561Z,6.90
2017-07-25T12:53:34.439Z,6.83
2017-07-25T12:56:00.697Z,6.20
2017-07-25T12:58:27.825Z,6.60
2017-07-25T13:01:07.068Z,6.63
2017-07-25T13:03:33.953Z,5.33
2017-07-25T13:06:00.242Z,6.40
2017-07-25T13:08:26.498Z,5.23
2017-07-25T13:10:54.094Z,5.20
2017-07-25T13:13:20.327Z,5.63
2017-07-25T13:15:46.567Z,6.87
2017-07-25T13:18:12.858Z,4.90
2017-07-25T13:20:39.158Z,6.40
2017-07-25T13:23:05.428Z,3.80
2017-07-25T13:25:33.046Z,3.80
2017-07-25T13:27:59.811Z,4.27
2017-07-25T13:30:26.283Z,4.07
2017-07-25T13:32:54.547Z,3.97
2017-07-25T13:35:21.668Z,4.47
2017-07-25T13:37:47.948Z,4.00
2017-07-25T13:40:14.240Z,3.90
2017-07-25T13:42:41.867Z,3.03
2017-07-25T13:45:08.692Z,2.40
2017-07-25T13:47:36.150Z,2.50
2017-07-25T13:50:03.116Z,2.63
2017-07-25T13:52:30.355Z,3.40
2017-07-25T13:54:56.627Z,4.23
2017-07-25T13:57:23.625Z,3.80
2017-07-25T13:59:50.310Z,3.33
2017-07-25T14:02:18.184Z,2.43
2017-07-25T14:04:44.611Z,3.77
2017-07-25T14:07:12.983Z,2.90
2017-07-25T14:09:39.361Z,3.20
2017-07-25T14:12:06.564Z,3.47
2017-07-25T14:14:32.802Z,4.33
2017-07-25T14:16:59.092Z,3.30
2017-07-25T14:19:25.336Z,3.43
2017-07-25T14:21:52.545Z,3.20
2017-07-25T14:24:19.821Z,2.80
2017-07-25T14:26:46.727Z,2.93
2017-07-25T14:29:13.060Z,3.17
2017-07-25T14:31:39.363Z,3.47
2017-07-25T14:34:06.228Z,3.43
2017-07-25T14:36:32.496Z,3.30
2017-07-25T14:38:58.775Z,2.70
2017-07-25T14:41:25.031Z,4.00
2017-07-25T14:43:51.923Z,3.10
2017-07-25T14:46:18.980Z,3.90
2017-07-25T14:48:46.558Z,3.73
2017-07-25T14:51:12.854Z,3.87
2017-07-25T14:53:39.847Z,3.60
2017-07-25T14:56:06.124Z,4.10
2017-07-25T14:58:32.906Z,3.73
2017-07-25T15:00:59.658Z,3.80
2017-07-25T15:03:25.965Z,4.17
2017-07-25T15:05:52.236Z,3.67
2017-07-25T15:08:18.985Z,2.77
2017-07-25T15:10:46.540Z,2.53
2017-07-25T15:13:14.140Z,1.80
2017-07-25T15:15:41.132Z,2.40
2017-07-25T15:18:08.468Z,2.30
2017-07-25T15:20:35.514Z,2.27
2017-07-25T15:23:01.777Z,2.10
2017-07-25T15:25:29.017Z,2.10
2017-07-25T15:27:55.494Z,2.90
2017-07-25T15:30:21.893Z,2.03
2017-07-25T15:32:48.220Z,1.80
2017-07-25T15:35:14.521Z,2.07
2017-07-25T15:37:40.810Z,2.03
2017-07-25T15:40:07.106Z,2.80
2017-07-25T15:42:33.364Z,3.20
2017-07-25T15:44:59.668Z,3.30
2017-07-25T15:47:25.949Z,3.30
2017-07-25T15:49:53.218Z,2.83
2017-07-25T15:52:20.001Z,2.43
2017-07-25T15:54:47.228Z,2.50
2017-07-25T15:57:13.495Z,2.57
2017-07-25T15:59:40.679Z,2.37
2017-07-25T16:02:06.934Z,2.23
2017-07-25T16:04:33.275Z,1.97
2017-07-25T16:06:59.580Z,1.00
2017-07-25T16:09:26.441Z,1.17
2017-07-25T16:11:53.398Z,0.90
2017-07-25T16:14:20.666Z,0.80
2017-07-25T16:16:47.422Z,0.90
2017-07-25T16:19:14.318Z,0.80
2017-07-25T16:21:40.653Z,1.37
2017-07-25T16:24:08.917Z,2.10
2017-07-25T16:26:35.205Z,0.90
2017-07-25T16:29:02.252Z,0.80
2017-07-25T16:31:30.789Z,1.23
2017-07-25T16:33:57.097Z,0.93
2017-07-25T16:36:24.359Z,0.80
2017-07-25T16:38:51.249Z,1.13
2017-07-25T16:41:17.537Z,1.10
2017-07-25T16:43:44.976Z,1.63
2017-07-25T16:46:11.245Z,1.03
2017-07-25T16:48:38.470Z,1.10
2017-07-25T16:51:05.828Z,1.37
2017-07-25T16:53:33.097Z,1.80
2017-07-25T16:55:59.352Z,1.50
2017-07-25T16:58:26.941Z,1.60
2017-07-25T17:00:53.796Z,1.43
2017-07-25T17:03:20.594Z,1.13
2017-07-25T17:05:46.852Z,1.20
2017-07-25T17:08:13.647Z,0.80
2017-07-25T17:10:39.900Z,1.00
2017-07-25T17:13:07.517Z,0.90
2017-07-25T17:15:34.001Z,1.10
2017-07-25T17:18:00.462Z,1.30
2017-07-25T17:20:26.722Z,1.33
2017-07-25T17:22:53.007Z,1.13
2017-07-25T17:25:19.837Z,1.10
2017-07-25T17:27:46.728Z,1.30
2017-07-25T17:30:13.351Z,1.10
2017-07-25T17:32:39.605Z,1.23
2017-07-25T17:35:05.893Z,2.50
2017-07-25T17:37:33.200Z,1.27
2017-07-25T17:39:59.484Z,2.10
2017-07-25T17:42:25.851Z,1.40
2017-07-25T17:44:53.067Z,1.20
2017-07-25T17:47:19.576Z,1.47
2017-07-25T17:49:45.830Z,1.30
2017-07-25T17:52:12.379Z,1.57
2017-07-25T17:54:40.554Z,1.50
2017-07-25T17:57:07.826Z,1.60
2017-07-25T17:59:34.115Z,1.60
2017-07-25T18:02:01.381Z,1.43
2017-07-25T18:04:27.666Z,2.00
2017-07-25T18:06:54.760Z,1.90
2017-07-25T18:09:21.036Z,2.20
2017-07-25T18:11:49.775Z,2.73
2017-07-25T18:14:16.893Z,2.40
2017-07-25T18:16:44.561Z,2.40
2017-07-25T18:19:10.858Z,2.90
2017-07-25T18:21:38.218Z,2.67
2017-07-25T18:24:04.467Z,2.40
2017-07-25T18:26:30.768Z,15.13
2017-07-25T18:28:57.056Z,2.60
2017-07-25T18:31:23.335Z,2.47
2017-07-25T18:33:49.707Z,2.80
2017-07-25T18:36:16.822Z,2.87
2017-07-25T18:38:43.121Z,2.58
2017-07-25T18:41:10.346Z,3.28
2017-07-25T18:43:36.688Z,2.10
2017-07-25T18:46:03.054Z,2.78
2017-07-25T18:48:30.229Z,3.62
2017-07-25T18:50:56.976Z,3.12
2017-07-25T18:53:23.452Z,3.20
2017-07-25T18:55:49.972Z,3.50
2017-07-25T18:58:16.752Z,3.58
2017-07-25T19:00:43.804Z,3.37
2017-07-25T19:03:10.964Z,3.95
2017-07-25T19:05:37.902Z,4.20
2017-07-25T19:08:04.916Z,4.20
2017-07-25T19:10:31.420Z,3.87
2017-07-25T19:12:57.748Z,4.07
2017-07-25T19:15:24.030Z,3.72
2017-07-25T19:17:50.294Z,3.53
2017-07-25T19:20:16.582Z,4.47
2017-07-25T19:22:43.504Z,4.65
2017-07-25T19:25:09.778Z,4.65
2017-07-25T19:27:37.169Z,4.12
2017-07-25T19:30:03.926Z,3.90
2017-07-25T19:32:30.256Z,4.15
2017-07-25T19:34:56.550Z,4.82
2017-07-25T19:37:23.101Z,4.32
2017-07-25T19:39:49.868Z,4.30
2017-07-25T19:42:16.132Z,4.35
2017-07-25T19:44:43.447Z,7.40
2017-07-25T19:47:10.369Z,4.22
2017-07-25T19:49:36.724Z,4.90
2017-07-25T19:52:03.012Z,4.65
2017-07-25T19:54:29.512Z,4.87
2017-07-25T19:56:55.800Z,5.37
2017-07-25T19:59:22.297Z,5.10
2017-07-25T20:01:48.582Z,5.28
2017-07-25T20:04:15.821Z,5.85
2017-07-25T20:06:43.067Z,5.30
2017-07-25T20:09:09.351Z,5.43
2017-07-25T20:11:36.351Z,5.03
2017-07-25T20:14:03.629Z,5.50
2017-07-25T20:16:29.885Z,4.80
2017-07-25T20:18:56.157Z,5.97
2017-07-25T20:21:22.443Z,5.00
2017-07-25T20:23:48.733Z,5.20
2017-07-25T20:26:15.416Z,5.72
2017-07-25T20:28:41.707Z,5.00
2017-07-25T20:31:08.667Z,5.62
2017-07-25T20:33:35.579Z,6.87
2017-07-25T20:36:01.832Z,5.93
2017-07-25T20:38:28.128Z,5.20
2017-07-25T20:40:55.105Z,5.95
2017-07-25T20:43:21.705Z,6.00
2017-07-25T20:45:47.986Z,6.10
2017-07-25T20:48:14.998Z,5.10
2017-07-25T20:50:41.253Z,5.25
2017-07-25T20:53:07.550Z,5.05
2017-07-25T20:55:33.928Z,5.53
2017-07-25T20:58:01.209Z,5.40
2017-07-25T21:00:27.520Z,5.70
2017-07-25T21:02:53.816Z,6.45
2017-07-25T21:05:22.089Z,5.90
2017-07-25T21:07:49.185Z,4.03
2017-07-25T21:10:17.540Z,5.07
2017-07-25T21:12:45.265Z,4.40
2017-07-25T21:15:11.581Z,4.15
2017-07-25T21:17:37.836Z,4.90
2017-07-25T21:20:04.127Z,6.05
2017-07-25T21:22:30.408Z,5.00
2017-07-25T21:24:58.081Z,7.25
2017-07-25T21:27:24.365Z,4.15
2017-07-25T21:29:50.684Z,4.93
2017-07-25T21:32:16.950Z,5.62
2017-07-25T21:34:43.252Z,5.70
2017-07-25T21:37:10.104Z,5.15
2017-07-25T21:39:37.058Z,5.80
2017-07-25T21:42:03.385Z,5.30
2017-07-25T21:44:29.667Z,4.97
2017-07-25T21:46:56.599Z,4.50
2017-07-25T21:49:22.882Z,4.57
2017-07-25T21:51:49.678Z,5.75
2017-07-25T21:54:15.960Z,5.20
2017-07-25T21:56:42.767Z,4.87
2017-07-25T21:59:10.151Z,4.50
2017-07-25T22:01:48.673Z,5.00
2017-07-25T22:04:27.929Z,5.53
2017-07-25T22:06:55.149Z,5.93
2017-07-25T22:09:22.919Z,5.82
2017-07-25T22:11:50.248Z,5.97
2017-07-25T22:14:17.423Z,7.03
2017-07-25T22:16:43.807Z,5.90
2017-07-25T22:19:10.721Z,5.82
2017-07-25T22:21:37.725Z,6.57
2017-07-25T22:24:04.451Z,6.75
2017-07-25T22:26:31.797Z,7.10
2017-07-25T22:28:59.065Z,6.00
2017-07-25T22:31:25.335Z,5.70
2017-07-25T22:33:52.525Z,5.28
2017-07-25T22:36:19.745Z,6.95
2017-07-25T22:38:47.057Z,5.87
2017-07-25T22:41:13.384Z,5.68
2017-07-25T22:43:39.656Z,4.90
2017-07-25T22:46:07.962Z,5.05
2017-07-25T22:48:35.186Z,5.12
2017-07-25T22:51:02.218Z,5.43
2017-07-25T22:53:29.161Z,6.35
2017-07-25T22:55:56.420Z,5.07
2017-07-25T22:58:24.571Z,6.28
2017-07-25T23:00:51.589Z,5.93
2017-07-25T23:03:17.852Z,6.28
2017-07-25T23:05:45.301Z,5.43
2017-07-25T23:08:11.548Z,6.78
2017-07-25T23:10:38.248Z,6.07
2017-07-25T23:13:05.360Z,6.28
2017-07-25T23:15:32.374Z,6.15
2017-07-25T23:17:59.153Z,6.37
2017-07-25T23:20:26.437Z,5.95
2017-07-25T23:22:53.723Z,5.97
2017-07-25T23:25:21.570Z,6.25
2017-07-25T23:27:47.856Z,5.68
2017-07-25T23:30:15.292Z,5.62
2017-07-25T23:32:42.308Z,6.32
2017-07-25T23:35:08.871Z,5.95
2017-07-25T23:37:35.744Z,6.85
2017-07-25T23:40:02.017Z,5.18
2017-07-25T23:42:28.272Z,6.28
2017-07-25T23:44:56.576Z,7.87
2017-07-25T23:47:22.810Z,5.62
2017-07-25T23:49:50.060Z,5.93
2017-07-25T23:52:16.311Z,6.53
2017-07-25T23:54:43.545Z,5.65
2017-07-25T23:57:11.312Z,6.90
2017-07-25T23:59:38.549Z,7.15
